sensor_id;sensor_type;location;lat;lon;timestamp;P1;durP1;ratioP1;P2;durP2;ratioP2
35540;SDS011;21650;48.840;9.162;2023-05-14T00:00:11;9.77;;;8.10;;
35540;SDS011;21650;48.840;9.162;2023-05-14T00:02:37;10.80;;;8.40;;
35540;SDS011;21650;48.840;9.162;2023-05-14T00:05:03;9.50;;;8.20;;
35540;SDS011;21650;48.840;9.162;2023-05-14T00:07:29;8.07;;;7.27;;
35540;SDS011;21650;48.840;9.162;2023-05-14T00:09:55;9.17;;;7.47;;
35540;SDS011;21650;48.840;9.162;2023-05-14T00:12:21;8.30;;;7.27;;
35540;SDS011;21650;48.840;9.162;2023-05-14T00:14:47;8.80;;;7.57;;
35540;SDS011;21650;48.840;9.162;2023-05-14T00:17:12;8.47;;;7.67;;
35540;SDS011;21650;48.840;9.162;2023-05-14T00:19:38;10.03;;;7.67;;
35540;SDS011;21650;48.840;9.162;2023-05-14T00:22:06;8.37;;;7.47;;
35540;SDS011;21650;48.840;9.162;2023-05-14T00:24:33;10.87;;;7.83;;
35540;SDS011;21650;48.840;9.162;2023-05-14T00:26:59;8.77;;;7.57;;
35540;SDS011;21650;48.840;9.162;2023-05-14T00:29:25;10.73;;;7.03;;
35540;SDS011;21650;48.840;9.162;2023-05-14T00:31:50;10.57;;;7.60;;
35540;SDS011;21650;48.840;9.162;2023-05-14T00:34:16;9.40;;;7.90;;
35540;SDS011;21650;48.840;9.162;2023-05-14T00:36:41;11.80;;;8.13;;
35540;SDS011;21650;48.840;9.162;2023-05-14T00:39:07;8.53;;;7.50;;
35540;SDS011;21650;48.840;9.162;2023-05-14T00:41:32;9.03;;;7.97;;
35540;SDS011;21650;48.840;9.162;2023-05-14T00:43:58;11.13;;;7.23;;
35540;SDS011;21650;48.840;9.162;2023-05-14T00:46:23;10.87;;;8.53;;
35540;SDS011;21650;48.840;9.162;2023-05-14T00:48:49;9.93;;;8.13;;
35540;SDS011;21650;48.840;9.162;2023-05-14T00:51:15;9.20;;;8.30;;
35540;SDS011;21650;48.840;9.162;2023-05-14T00:53:42;10.80;;;9.00;;
35540;SDS011;21650;48.840;9.162;2023-05-14T00:56:08;9.57;;;7.80;;
35540;SDS011;21650;48.840;9.162;2023-05-14T00:58:34;8.83;;;7.73;;
35540;SDS011;21650;48.840;9.162;2023-05-14T01:01:00;11.80;;;7.30;;
35540;SDS011;21650;48.840;9.162;2023-05-14T01:03:25;7.90;;;7.10;;
35540;SDS011;21650;48.840;9.162;2023-05-14T01:14:25;7.57;;;6.77;;
35540;SDS011;21650;48.840;9.162;2023-05-14T01:16:57;8.33;;;7.37;;
35540;SDS011;21650;48.840;9.162;2023-05-14T01:19:36;10.17;;;7.47;;
35540;SDS011;21650;48.840;9.162;2023-05-14T01:22:04;8.70;;;7.30;;
35540;SDS011;21650;48.840;9.162;2023-05-14T01:24:30;9.57;;;7.50;;
35540;SDS011;21650;48.840;9.162;2023-05-14T01:26:57;9.60;;;7.80;;
35540;SDS011;21650;48.840;9.162;2023-05-14T01:29:30;9.97;;;8.00;;
35540;SDS011;21650;48.840;9.162;2023-05-14T01:31:59;10.50;;;8.73;;
35540;SDS011;21650;48.840;9.162;2023-05-14T01:34:25;10.33;;;8.80;;
35540;SDS011;21650;48.840;9.162;2023-05-14T01:36:54;11.80;;;8.17;;
35540;SDS011;21650;48.840;9.162;2023-05-14T01:39:20;11.87;;;9.03;;
35540;SDS011;21650;48.840;9.162;2023-05-14T01:41:47;9.50;;;7.30;;
35540;SDS011;21650;48.840;9.162;2023-05-14T01:44:13;10.33;;;9.13;;
35540;SDS011;21650;48.840;9.162;2023-05-14T01:46:39;10.70;;;8.63;;
35540;SDS011;21650;48.840;9.162;2023-05-14T01:49:04;8.87;;;7.70;;
35540;SDS011;21650;48.840;9.162;2023-05-14T01:51:30;9.73;;;8.07;;
35540;SDS011;21650;48.840;9.162;2023-05-14T01:53:55;10.03;;;8.53;;
35540;SDS011;21650;48.840;9.162;2023-05-14T01:56:21;11.00;;;8.10;;
35540;SDS011;21650;48.840;9.162;2023-05-14T01:58:47;10.03;;;8.70;;
35540;SDS011;21650;48.840;9.162;2023-05-14T02:01:13;10.10;;;8.43;;
35540;SDS011;21650;48.840;9.162;2023-05-14T02:03:39;9.77;;;8.40;;
35540;SDS011;21650;48.840;9.162;2023-05-14T02:06:04;11.20;;;9.40;;
35540;SDS011;21650;48.840;9.162;2023-05-14T02:08:30;9.80;;;8.80;;
35540;SDS011;21650;48.840;9.162;2023-05-14T02:10:55;11.30;;;9.30;;
35540;SDS011;21650;48.840;9.162;2023-05-14T02:13:21;11.87;;;9.23;;
35540;SDS011;21650;48.840;9.162;2023-05-14T02:15:46;12.93;;;9.10;;
35540;SDS011;21650;48.840;9.162;2023-05-14T02:18:12;10.63;;;8.67;;
35540;SDS011;21650;48.840;9.162;2023-05-14T02:20:37;9.03;;;8.13;;
35540;SDS011;21650;48.840;9.162;2023-05-14T02:23:03;10.17;;;8.40;;
35540;SDS011;21650;48.840;9.162;2023-05-14T02:25:28;9.53;;;8.27;;
35540;SDS011;21650;48.840;9.162;2023-05-14T02:27:54;9.77;;;8.73;;
35540;SDS011;21650;48.840;9.162;2023-05-14T02:30:20;9.40;;;7.87;;
35540;SDS011;21650;48.840;9.162;2023-05-14T02:32:46;8.97;;;8.07;;
35540;SDS011;21650;48.840;9.162;2023-05-14T02:35:11;10.73;;;8.17;;
35540;SDS011;21650;48.840;9.162;2023-05-14T02:37:37;10.87;;;8.23;;
35540;SDS011;21650;48.840;9.162;2023-05-14T02:40:02;9.80;;;7.60;;
35540;SDS011;21650;48.840;9.162;2023-05-14T02:42:28;10.23;;;8.20;;
35540;SDS011;21650;48.840;9.162;2023-05-14T02:44:53;10.70;;;8.30;;
35540;SDS011;21650;48.840;9.162;2023-05-14T02:47:19;10.67;;;9.03;;
35540;SDS011;21650;48.840;9.162;2023-05-14T02:49:45;13.80;;;8.37;;
35540;SDS011;21650;48.840;9.162;2023-05-14T02:52:10;10.67;;;8.37;;
35540;SDS011;21650;48.840;9.162;2023-05-14T02:54:36;12.60;;;9.07;;
35540;SDS011;21650;48.840;9.162;2023-05-14T02:57:01;10.87;;;8.53;;
35540;SDS011;21650;48.840;9.162;2023-05-14T02:59:27;14.90;;;9.90;;
35540;SDS011;21650;48.840;9.162;2023-05-14T03:01:54;13.37;;;9.03;;
35540;SDS011;21650;48.840;9.162;2023-05-14T03:04:19;10.87;;;9.23;;
35540;SDS011;21650;48.840;9.162;2023-05-14T03:06:45;10.83;;;9.30;;
35540;SDS011;21650;48.840;9.162;2023-05-14T03:09:10;10.57;;;9.47;;
35540;SDS011;21650;48.840;9.162;2023-05-14T03:11:36;13.10;;;9.00;;
35540;SDS011;21650;48.840;9.162;2023-05-14T03:14:01;12.00;;;9.93;;
35540;SDS011;21650;48.840;9.162;2023-05-14T03:16:27;13.40;;;9.83;;
35540;SDS011;21650;48.840;9.162;2023-05-14T03:18:52;12.17;;;10.10;;
35540;SDS011;21650;48.840;9.162;2023-05-14T03:21:18;13.60;;;10.40;;
35540;SDS011;21650;48.840;9.162;2023-05-14T03:23:43;12.67;;;9.83;;
35540;SDS011;21650;48.840;9.162;2023-05-14T03:26:09;12.47;;;8.53;;
35540;SDS011;21650;48.840;9.162;2023-05-14T03:28:35;11.57;;;8.63;;
35540;SDS011;21650;48.840;9.162;2023-05-14T03:31:00;10.23;;;8.60;;
35540;SDS011;21650;48.840;9.162;2023-05-14T03:33:26;11.47;;;9.33;;
35540;SDS011;21650;48.840;9.162;2023-05-14T03:35:51;9.67;;;8.20;;
35540;SDS011;21650;48.840;9.162;2023-05-14T03:38:17;12.73;;;10.03;;
35540;SDS011;21650;48.840;9.162;2023-05-14T03:40:43;15.90;;;9.47;;
35540;SDS011;21650;48.840;9.162;2023-05-14T03:43:09;12.30;;;9.27;;
35540;SDS011;21650;48.840;9.162;2023-05-14T03:45:35;10.17;;;8.70;;
35540;SDS011;21650;48.840;9.162;2023-05-14T03:48:01;9.97;;;8.53;;
35540;SDS011;21650;48.840;9.162;2023-05-14T03:50:26;11.23;;;8.17;;
35540;SDS011;21650;48.840;9.162;2023-05-14T03:52:52;10.27;;;8.23;;
35540;SDS011;21650;48.840;9.162;2023-05-14T03:55:19;9.63;;;7.77;;
35540;SDS011;21650;48.840;9.162;2023-05-14T03:57:44;12.90;;;8.13;;
35540;SDS011;21650;48.840;9.162;2023-05-14T04:00:11;9.47;;;7.83;;
35540;SDS011;21650;48.840;9.162;2023-05-14T04:02:37;9.83;;;8.50;;
35540;SDS011;21650;48.840;9.162;2023-05-14T04:05:02;11.83;;;9.40;;
35540;SDS011;21650;48.840;9.162;2023-05-14T04:07:28;9.67;;;8.30;;
35540;SDS011;21650;48.840;9.162;2023-05-14T04:09:54;10.00;;;8.83;;
35540;SDS011;21650;48.840;9.162;2023-05-14T04:12:19;11.50;;;9.23;;
35540;SDS011;21650;48.840;9.162;2023-05-14T04:14:45;10.73;;;8.70;;
35540;SDS011;21650;48.840;9.162;2023-05-14T04:17:11;11.33;;;8.43;;
35540;SDS011;21650;48.840;9.162;2023-05-14T04:19:36;11.13;;;8.90;;
35540;SDS011;21650;48.840;9.162;2023-05-14T04:22:03;11.23;;;8.33;;
35540;SDS011;21650;48.840;9.162;2023-05-14T04:24:29;11.80;;;9.47;;
35540;SDS011;21650;48.840;9.162;2023-05-14T04:26:54;8.07;;;7.27;;
35540;SDS011;21650;48.840;9.162;2023-05-14T04:29:20;11.03;;;8.73;;
35540;SDS011;21650;48.840;9.162;2023-05-14T04:31:45;12.00;;;8.50;;
35540;SDS011;21650;48.840;9.162;2023-05-14T04:34:11;8.87;;;7.83;;
35540;SDS011;21650;48.840;9.162;2023-05-14T04:36:36;10.97;;;9.23;;
35540;SDS011;21650;48.840;9.162;2023-05-14T04:39:02;10.73;;;8.17;;
35540;SDS011;21650;48.840;9.162;2023-05-14T04:41:28;9.17;;;8.07;;
35540;SDS011;21650;48.840;9.162;2023-05-14T04:43:54;9.03;;;7.97;;
35540;SDS011;21650;48.840;9.162;2023-05-14T04:46:20;12.03;;;8.70;;
35540;SDS011;21650;48.840;9.162;2023-05-14T04:48:46;10.57;;;9.43;;
35540;SDS011;21650;48.840;9.162;2023-05-14T04:51:12;10.17;;;8.13;;
35540;SDS011;21650;48.840;9.162;2023-05-14T04:53:38;10.50;;;8.20;;
35540;SDS011;21650;48.840;9.162;2023-05-14T04:56:04;10.43;;;8.50;;
35540;SDS011;21650;48.840;9.162;2023-05-14T04:58:30;11.60;;;8.97;;
35540;SDS011;21650;48.840;9.162;2023-05-14T05:00:56;10.33;;;8.60;;
35540;SDS011;21650;48.840;9.162;2023-05-14T05:03:22;13.23;;;9.33;;
35540;SDS011;21650;48.840;9.162;2023-05-14T05:05:48;11.47;;;8.57;;
35540;SDS011;21650;48.840;9.162;2023-05-14T05:08:13;11.90;;;8.50;;
35540;SDS011;21650;48.840;9.162;2023-05-14T05:10:39;14.93;;;9.30;;
35540;SDS011;21650;48.840;9.162;2023-05-14T05:13:05;11.23;;;8.80;;
35540;SDS011;21650;48.840;9.162;2023-05-14T05:15:30;11.57;;;9.50;;
35540;SDS011;21650;48.840;9.162;2023-05-14T05:17:56;10.03;;;8.57;;
35540;SDS011;21650;48.840;9.162;2023-05-14T05:20:21;11.60;;;9.23;;
35540;SDS011;21650;48.840;9.162;2023-05-14T05:22:47;11.07;;;8.87;;
35540;SDS011;21650;48.840;9.162;2023-05-14T05:25:12;10.53;;;8.97;;
35540;SDS011;21650;48.840;9.162;2023-05-14T05:27:38;10.33;;;8.30;;
35540;SDS011;21650;48.840;9.162;2023-05-14T05:30:03;11.07;;;8.97;;
35540;SDS011;21650;48.840;9.162;2023-05-14T05:32:30;12.73;;;8.97;;
35540;SDS011;21650;48.840;9.162;2023-05-14T05:34:55;12.23;;;9.00;;
35540;SDS011;21650;48.840;9.162;2023-05-14T05:37:21;11.37;;;8.53;;
35540;SDS011;21650;48.840;9.162;2023-05-14T05:39:47;11.00;;;8.33;;
35540;SDS011;21650;48.840;9.162;2023-05-14T05:42:13;11.73;;;9.20;;
35540;SDS011;21650;48.840;9.162;2023-05-14T05:44:39;12.53;;;8.60;;
35540;SDS011;21650;48.840;9.162;2023-05-14T05:47:04;10.60;;;8.50;;
35540;SDS011;21650;48.840;9.162;2023-05-14T05:49:30;10.30;;;8.00;;
35540;SDS011;21650;48.840;9.162;2023-05-14T05:51:56;9.20;;;7.37;;
35540;SDS011;21650;48.840;9.162;2023-05-14T05:54:22;10.90;;;8.60;;
35540;SDS011;21650;48.840;9.162;2023-05-14T05:56:49;9.23;;;7.90;;
35540;SDS011;21650;48.840;9.162;2023-05-14T05:59:14;12.97;;;8.07;;
35540;SDS011;21650;48.840;9.162;2023-05-14T06:01:40;10.93;;;8.50;;
35540;SDS011;21650;48.840;9.162;2023-05-14T06:04:07;10.63;;;8.70;;
35540;SDS011;21650;48.840;9.162;2023-05-14T06:06:33;12.83;;;9.80;;
35540;SDS011;21650;48.840;9.162;2023-05-14T06:08:59;11.67;;;9.00;;
35540;SDS011;21650;48.840;9.162;2023-05-14T06:11:26;10.60;;;9.17;;
35540;SDS011;21650;48.840;9.162;2023-05-14T06:13:52;11.87;;;8.80;;
35540;SDS011;21650;48.840;9.162;2023-05-14T06:16:18;10.17;;;8.20;;
35540;SDS011;21650;48.840;9.162;2023-05-14T06:18:43;13.33;;;9.60;;
35540;SDS011;21650;48.840;9.162;2023-05-14T06:21:09;12.27;;;9.13;;
35540;SDS011;21650;48.840;9.162;2023-05-14T06:23:35;12.13;;;8.90;;
35540;SDS011;21650;48.840;9.162;2023-05-14T06:26:00;11.43;;;9.07;;
35540;SDS011;21650;48.840;9.162;2023-05-14T06:28:26;10.63;;;8.47;;
35540;SDS011;21650;48.840;9.162;2023-05-14T06:30:51;10.63;;;7.90;;
35540;SDS011;21650;48.840;9.162;2023-05-14T06:33:20;13.20;;;9.50;;
35540;SDS011;21650;48.840;9.162;2023-05-14T06:35:53;10.40;;;8.70;;
35540;SDS011;21650;48.840;9.162;2023-05-14T06:38:19;10.87;;;8.43;;
35540;SDS011;21650;48.840;9.162;2023-05-14T06:40:45;10.43;;;8.83;;
35540;SDS011;21650;48.840;9.162;2023-05-14T06:43:10;12.13;;;9.07;;
35540;SDS011;21650;48.840;9.162;2023-05-14T06:45:36;8.67;;;7.43;;
35540;SDS011;21650;48.840;9.162;2023-05-14T06:48:01;10.23;;;8.53;;
35540;SDS011;21650;48.840;9.162;2023-05-14T06:50:28;11.63;;;8.80;;
35540;SDS011;21650;48.840;9.162;2023-05-14T06:52:54;11.70;;;8.83;;
35540;SDS011;21650;48.840;9.162;2023-05-14T06:55:19;11.60;;;8.93;;
35540;SDS011;21650;48.840;9.162;2023-05-14T06:57:45;10.17;;;8.63;;
35540;SDS011;21650;48.840;9.162;2023-05-14T07:00:10;13.70;;;9.33;;
35540;SDS011;21650;48.840;9.162;2023-05-14T07:02:38;12.73;;;9.10;;
35540;SDS011;21650;48.840;9.162;2023-05-14T07:05:03;11.97;;;8.90;;
35540;SDS011;21650;48.840;9.162;2023-05-14T07:07:29;13.77;;;9.50;;
35540;SDS011;21650;48.840;9.162;2023-05-14T07:09:55;13.83;;;9.60;;
35540;SDS011;21650;48.840;9.162;2023-05-14T07:12:20;11.60;;;9.73;;
35540;SDS011;21650;48.840;9.162;2023-05-14T07:14:46;12.43;;;9.23;;
35540;SDS011;21650;48.840;9.162;2023-05-14T07:17:11;14.93;;;10.77;;
35540;SDS011;21650;48.840;9.162;2023-05-14T07:19:37;12.23;;;9.30;;
35540;SDS011;21650;48.840;9.162;2023-05-14T07:22:03;13.03;;;9.70;;
35540;SDS011;21650;48.840;9.162;2023-05-14T07:24:28;12.67;;;9.93;;
35540;SDS011;21650;48.840;9.162;2023-05-14T07:26:54;11.43;;;9.17;;
35540;SDS011;21650;48.840;9.162;2023-05-14T07:29:21;11.23;;;9.00;;
35540;SDS011;21650;48.840;9.162;2023-05-14T07:31:47;12.00;;;9.80;;
35540;SDS011;21650;48.840;9.162;2023-05-14T07:34:12;11.93;;;9.47;;
35540;SDS011;21650;48.840;9.162;2023-05-14T07:36:38;12.10;;;9.43;;
35540;SDS011;21650;48.840;9.162;2023-05-14T07:39:04;11.80;;;9.00;;
35540;SDS011;21650;48.840;9.162;2023-05-14T07:41:29;13.33;;;9.63;;
35540;SDS011;21650;48.840;9.162;2023-05-14T07:43:55;14.20;;;10.70;;
35540;SDS011;21650;48.840;9.162;2023-05-14T07:46:20;12.83;;;9.70;;
35540;SDS011;21650;48.840;9.162;2023-05-14T07:48:47;13.50;;;10.40;;
35540;SDS011;21650;48.840;9.162;2023-05-14T07:51:13;12.90;;;10.57;;
35540;SDS011;21650;48.840;9.162;2023-05-14T07:53:38;14.80;;;9.83;;
35540;SDS011;21650;48.840;9.162;2023-05-14T07:56:05;14.27;;;10.73;;
35540;SDS011;21650;48.840;9.162;2023-05-14T07:58:31;15.47;;;10.70;;
35540;SDS011;21650;48.840;9.162;2023-05-14T08:00:56;11.97;;;10.13;;
35540;SDS011;21650;48.840;9.162;2023-05-14T08:03:22;13.33;;;10.07;;
35540;SDS011;21650;48.840;9.162;2023-05-14T08:05:48;11.77;;;9.67;;
35540;SDS011;21650;48.840;9.162;2023-05-14T08:08:13;12.47;;;9.73;;
35540;SDS011;21650;48.840;9.162;2023-05-14T08:10:39;12.90;;;9.53;;
35540;SDS011;21650;48.840;9.162;2023-05-14T08:13:04;12.57;;;9.70;;
35540;SDS011;21650;48.840;9.162;2023-05-14T08:15:30;11.20;;;9.73;;
35540;SDS011;21650;48.840;9.162;2023-05-14T08:17:56;14.40;;;10.23;;
35540;SDS011;21650;48.840;9.162;2023-05-14T08:20:27;14.10;;;9.57;;
35540;SDS011;21650;48.840;9.162;2023-05-14T08:22:53;12.00;;;9.23;;
35540;SDS011;21650;48.840;9.162;2023-05-14T08:25:19;14.63;;;10.13;;
35540;SDS011;21650;48.840;9.162;2023-05-14T08:27:45;13.00;;;9.50;;
35540;SDS011;21650;48.840;9.162;2023-05-14T08:30:10;10.67;;;8.73;;
35540;SDS011;21650;48.840;9.162;2023-05-14T08:32:36;11.97;;;9.47;;
35540;SDS011;21650;48.840;9.162;2023-05-14T08:35:03;16.73;;;9.80;;
35540;SDS011;21650;48.840;9.162;2023-05-14T08:37:29;12.97;;;9.57;;
35540;SDS011;21650;48.840;9.162;2023-05-14T08:39:54;13.20;;;10.63;;
35540;SDS011;21650;48.840;9.162;2023-05-14T08:42:20;12.30;;;10.03;;
35540;SDS011;21650;48.840;9.162;2023-05-14T08:44:49;13.80;;;10.67;;
35540;SDS011;21650;48.840;9.162;2023-05-14T08:47:21;13.93;;;11.53;;
35540;SDS011;21650;48.840;9.162;2023-05-14T08:49:51;14.50;;;9.93;;
35540;SDS011;21650;48.840;9.162;2023-05-14T08:52:21;13.00;;;10.03;;
35540;SDS011;21650;48.840;9.162;2023-05-14T08:54:47;13.13;;;9.83;;
35540;SDS011;21650;48.840;9.162;2023-05-14T08:57:16;13.53;;;9.87;;
35540;SDS011;21650;48.840;9.162;2023-05-14T08:59:44;15.03;;;10.20;;
35540;SDS011;21650;48.840;9.162;2023-05-14T09:02:09;13.03;;;10.27;;
35540;SDS011;21650;48.840;9.162;2023-05-14T09:04:38;16.97;;;11.00;;
35540;SDS011;21650;48.840;9.162;2023-05-14T09:07:05;13.97;;;10.60;;
35540;SDS011;21650;48.840;9.162;2023-05-14T09:09:31;10.50;;;8.77;;
35540;SDS011;21650;48.840;9.162;2023-05-14T09:11:57;10.83;;;9.70;;
35540;SDS011;21650;48.840;9.162;2023-05-14T09:14:23;13.23;;;10.27;;
35540;SDS011;21650;48.840;9.162;2023-05-14T09:16:49;12.90;;;9.93;;
35540;SDS011;21650;48.840;9.162;2023-05-14T09:19:15;11.10;;;8.83;;
35540;SDS011;21650;48.840;9.162;2023-05-14T09:21:43;10.77;;;9.33;;
35540;SDS011;21650;48.840;9.162;2023-05-14T09:24:17;12.40;;;9.57;;
35540;SDS011;21650;48.840;9.162;2023-05-14T09:26:48;11.23;;;9.07;;
35540;SDS011;21650;48.840;9.162;2023-05-14T09:29:17;12.43;;;9.97;;
35540;SDS011;21650;48.840;9.162;2023-05-14T09:31:43;13.90;;;10.43;;
35540;SDS011;21650;48.840;9.162;2023-05-14T09:34:09;11.00;;;9.17;;
35540;SDS011;21650;48.840;9.162;2023-05-14T09:36:35;11.77;;;9.40;;
35540;SDS011;21650;48.840;9.162;2023-05-14T09:39:04;14.40;;;9.73;;
35540;SDS011;21650;48.840;9.162;2023-05-14T09:41:29;10.30;;;8.87;;
35540;SDS011;21650;48.840;9.162;2023-05-14T09:43:56;11.40;;;9.90;;
35540;SDS011;21650;48.840;9.162;2023-05-14T09:46:21;12.43;;;10.63;;
35540;SDS011;21650;48.840;9.162;2023-05-14T09:48:47;14.20;;;10.63;;
35540;SDS011;21650;48.840;9.162;2023-05-14T09:51:14;13.93;;;10.10;;
35540;SDS011;21650;48.840;9.162;2023-05-14T09:53:44;11.13;;;9.03;;
35540;SDS011;21650;48.840;9.162;2023-05-14T09:56:10;14.77;;;8.47;;
35540;SDS011;21650;48.840;9.162;2023-05-14T09:58:36;10.20;;;8.17;;
35540;SDS011;21650;48.840;9.162;2023-05-14T10:01:02;9.07;;;7.70;;
35540;SDS011;21650;48.840;9.162;2023-05-14T10:03:28;8.23;;;7.37;;
35540;SDS011;21650;48.840;9.162;2023-05-14T10:05:55;9.07;;;7.70;;
35540;SDS011;21650;48.840;9.162;2023-05-14T10:08:34;6.53;;;5.77;;
35540;SDS011;21650;48.840;9.162;2023-05-14T10:11:07;8.83;;;6.83;;
35540;SDS011;21650;48.840;9.162;2023-05-14T10:13:38;7.73;;;6.40;;
35540;SDS011;21650;48.840;9.162;2023-05-14T10:18:35;11.40;;;6.87;;
35540;SDS011;21650;48.840;9.162;2023-05-14T10:21:06;9.37;;;6.03;;
35540;SDS011;21650;48.840;9.162;2023-05-14T10:23:32;9.80;;;7.73;;
35540;SDS011;21650;48.840;9.162;2023-05-14T10:26:01;11.40;;;8.00;;
35540;SDS011;21650;48.840;9.162;2023-05-14T10:28:28;10.40;;;7.57;;
35540;SDS011;21650;48.840;9.162;2023-05-14T10:30:54;10.67;;;7.93;;
35540;SDS011;21650;48.840;9.162;2023-05-14T10:33:20;9.30;;;7.80;;
35540;SDS011;21650;48.840;9.162;2023-05-14T10:35:49;8.37;;;6.70;;
35540;SDS011;21650;48.840;9.162;2023-05-14T10:38:21;10.47;;;7.60;;
35540;SDS011;21650;48.840;9.162;2023-05-14T10:40:51;9.20;;;6.77;;
35540;SDS011;21650;48.840;9.162;2023-05-14T10:43:23;10.83;;;7.70;;
35540;SDS011;21650;48.840;9.162;2023-05-14T10:45:51;8.80;;;7.40;;
35540;SDS011;21650;48.840;9.162;2023-05-14T10:48:16;8.57;;;7.07;;
35540;SDS011;21650;48.840;9.162;2023-05-14T10:50:43;10.57;;;7.93;;
35540;SDS011;21650;48.840;9.162;2023-05-14T10:53:12;9.87;;;8.37;;
35540;SDS011;21650;48.840;9.162;2023-05-14T10:55:38;8.13;;;7.27;;
35540;SDS011;21650;48.840;9.162;2023-05-14T10:58:03;9.70;;;7.77;;
35540;SDS011;21650;48.840;9.162;2023-05-14T11:00:32;9.63;;;7.53;;
35540;SDS011;21650;48.840;9.162;2023-05-14T11:02:59;12.27;;;8.13;;
35540;SDS011;21650;48.840;9.162;2023-05-14T11:05:27;9.00;;;8.10;;
35540;SDS011;21650;48.840;9.162;2023-05-14T11:07:54;8.77;;;7.23;;
35540;SDS011;21650;48.840;9.162;2023-05-14T11:10:21;8.00;;;7.17;;
35540;SDS011;21650;48.840;9.162;2023-05-14T11:12:52;8.00;;;6.80;;
35540;SDS011;21650;48.840;9.162;2023-05-14T11:15:21;7.87;;;7.07;;
35540;SDS011;21650;48.840;9.162;2023-05-14T11:17:49;8.50;;;7.30;;
35540;SDS011;21650;48.840;9.162;2023-05-14T11:20:15;7.10;;;6.40;;
35540;SDS011;21650;48.840;9.162;2023-05-14T11:22:42;7.00;;;6.07;;
35540;SDS011;21650;48.840;9.162;2023-05-14T11:25:09;6.93;;;5.37;;
35540;SDS011;21650;48.840;9.162;2023-05-14T11:27:38;7.53;;;6.00;;
35540;SDS011;21650;48.840;9.162;2023-05-14T11:30:15;8.47;;;6.20;;
35540;SDS011;21650;48.840;9.162;2023-05-14T11:32:43;8.53;;;6.33;;
35540;SDS011;21650;48.840;9.162;2023-05-14T11:35:10;7.77;;;5.70;;
35540;SDS011;21650;48.840;9.162;2023-05-14T11:37:36;7.90;;;5.63;;
35540;SDS011;21650;48.840;9.162;2023-05-14T11:40:05;6.23;;;5.63;;
35540;SDS011;21650;48.840;9.162;2023-05-14T11:42:33;6.63;;;6.00;;
35540;SDS011;21650;48.840;9.162;2023-05-14T11:45:00;6.33;;;5.67;;
35540;SDS011;21650;48.840;9.162;2023-05-14T11:47:28;9.50;;;7.43;;
35540;SDS011;21650;48.840;9.162;2023-05-14T11:49:55;7.20;;;5.50;;
35540;SDS011;21650;48.840;9.162;2023-05-14T11:52:20;5.73;;;5.03;;
35540;SDS011;21650;48.840;9.162;2023-05-14T11:54:46;5.40;;;4.83;;
35540;SDS011;21650;48.840;9.162;2023-05-14T11:57:14;5.67;;;5.07;;
35540;SDS011;21650;48.840;9.162;2023-05-14T11:59:45;4.90;;;4.40;;
35540;SDS011;21650;48.840;9.162;2023-05-14T12:02:12;5.70;;;4.67;;
35540;SDS011;21650;48.840;9.162;2023-05-14T12:04:42;6.27;;;4.50;;
35540;SDS011;21650;48.840;9.162;2023-05-14T12:07:12;5.20;;;4.70;;
35540;SDS011;21650;48.840;9.162;2023-05-14T12:09:40;6.03;;;5.10;;
35540;SDS011;21650;48.840;9.162;2023-05-14T12:12:13;7.43;;;5.73;;
35540;SDS011;21650;48.840;9.162;2023-05-14T12:14:44;6.67;;;5.20;;
35540;SDS011;21650;48.840;9.162;2023-05-14T12:17:20;7.80;;;6.83;;
35540;SDS011;21650;48.840;9.162;2023-05-14T12:19:47;6.70;;;5.27;;
35540;SDS011;21650;48.840;9.162;2023-05-14T12:22:16;7.20;;;5.47;;
35540;SDS011;21650;48.840;9.162;2023-05-14T12:24:43;6.77;;;5.07;;
35540;SDS011;21650;48.840;9.162;2023-05-14T12:27:21;6.00;;;5.40;;
35540;SDS011;21650;48.840;9.162;2023-05-14T12:29:48;8.27;;;4.93;;
35540;SDS011;21650;48.840;9.162;2023-05-14T12:32:17;6.00;;;5.40;;
35540;SDS011;21650;48.840;9.162;2023-05-14T12:34:44;6.23;;;5.50;;
35540;SDS011;21650;48.840;9.162;2023-05-14T12:37:09;6.30;;;4.87;;
35540;SDS011;21650;48.840;9.162;2023-05-14T12:39:35;5.33;;;4.60;;
35540;SDS011;21650;48.840;9.162;2023-05-14T12:42:00;5.37;;;4.60;;
35540;SDS011;21650;48.840;9.162;2023-05-14T12:44:26;6.27;;;5.03;;
35540;SDS011;21650;48.840;9.162;2023-05-14T12:46:52;4.90;;;4.17;;
35540;SDS011;21650;48.840;9.162;2023-05-14T12:49:18;6.47;;;5.20;;
35540;SDS011;21650;48.840;9.162;2023-05-14T12:51:44;5.50;;;4.77;;
35540;SDS011;21650;48.840;9.162;2023-05-14T12:54:10;5.60;;;4.87;;
35540;SDS011;21650;48.840;9.162;2023-05-14T12:56:36;6.10;;;5.50;;
35540;SDS011;21650;48.840;9.162;2023-05-14T12:59:02;4.90;;;3.93;;
35540;SDS011;21650;48.840;9.162;2023-05-14T13:01:28;6.33;;;4.47;;
35540;SDS011;21650;48.840;9.162;2023-05-14T13:03:54;5.50;;;4.10;;
35540;SDS011;21650;48.840;9.162;2023-05-14T13:06:20;5.93;;;5.03;;
35540;SDS011;21650;48.840;9.162;2023-05-14T13:08:46;5.13;;;4.63;;
35540;SDS011;21650;48.840;9.162;2023-05-14T13:11:11;5.43;;;3.40;;
35540;SDS011;21650;48.840;9.162;2023-05-14T13:13:37;4.63;;;4.23;;
35540;SDS011;21650;48.840;9.162;2023-05-14T13:16:02;5.57;;;4.80;;
35540;SDS011;21650;48.840;9.162;2023-05-14T13:18:28;4.97;;;3.87;;
35540;SDS011;21650;48.840;9.162;2023-05-14T13:20:54;4.87;;;4.37;;
35540;SDS011;21650;48.840;9.162;2023-05-14T13:23:19;4.17;;;3.77;;
35540;SDS011;21650;48.840;9.162;2023-05-14T13:25:45;4.33;;;3.93;;
35540;SDS011;21650;48.840;9.162;2023-05-14T13:28:10;5.70;;;4.33;;
35540;SDS011;21650;48.840;9.162;2023-05-14T13:30:36;5.23;;;4.03;;
35540;SDS011;21650;48.840;9.162;2023-05-14T13:33:02;6.13;;;4.53;;
35540;SDS011;21650;48.840;9.162;2023-05-14T13:35:27;6.27;;;3.80;;
35540;SDS011;21650;48.840;9.162;2023-05-14T13:37:53;5.50;;;4.43;;
35540;SDS011;21650;48.840;9.162;2023-05-14T13:40:18;4.27;;;3.87;;
35540;SDS011;21650;48.840;9.162;2023-05-14T13:42:44;5.27;;;4.40;;
35540;SDS011;21650;48.840;9.162;2023-05-14T13:45:09;5.77;;;4.77;;
35540;SDS011;21650;48.840;9.162;2023-05-14T13:47:36;5.17;;;4.10;;
35540;SDS011;21650;48.840;9.162;2023-05-14T13:50:02;4.60;;;3.73;;
35540;SDS011;21650;48.840;9.162;2023-05-14T13:52:28;4.33;;;3.83;;
35540;SDS011;21650;48.840;9.162;2023-05-14T13:54:53;3.67;;;3.27;;
35540;SDS011;21650;48.840;9.162;2023-05-14T13:57:19;5.50;;;3.67;;
35540;SDS011;21650;48.840;9.162;2023-05-14T13:59:45;4.10;;;3.37;;
35540;SDS011;21650;48.840;9.162;2023-05-14T14:02:11;3.33;;;3.03;;
35540;SDS011;21650;48.840;9.162;2023-05-14T14:04:37;3.87;;;3.00;;
35540;SDS011;21650;48.840;9.162;2023-05-14T14:07:03;4.60;;;3.63;;
35540;SDS011;21650;48.840;9.162;2023-05-14T14:09:28;4.63;;;3.30;;
35540;SDS011;21650;48.840;9.162;2023-05-14T14:11:58;3.73;;;3.40;;
35540;SDS011;21650;48.840;9.162;2023-05-14T14:14:25;3.13;;;2.63;;
35540;SDS011;21650;48.840;9.162;2023-05-14T14:16:50;3.67;;;3.27;;
35540;SDS011;21650;48.840;9.162;2023-05-14T14:19:16;4.00;;;3.57;;
35540;SDS011;21650;48.840;9.162;2023-05-14T14:21:41;4.80;;;4.17;;
35540;SDS011;21650;48.840;9.162;2023-05-14T14:24:07;4.43;;;3.93;;
35540;SDS011;21650;48.840;9.162;2023-05-14T14:26:32;5.57;;;4.50;;
35540;SDS011;21650;48.840;9.162;2023-05-14T14:28:58;3.93;;;3.50;;
35540;SDS011;21650;48.840;9.162;2023-05-14T14:31:23;3.80;;;3.40;;
35540;SDS011;21650;48.840;9.162;2023-05-14T14:33:49;7.67;;;3.90;;
35540;SDS011;21650;48.840;9.162;2023-05-14T14:36:14;3.33;;;3.03;;
35540;SDS011;21650;48.840;9.162;2023-05-14T14:38:40;4.73;;;2.50;;
35540;SDS011;21650;48.840;9.162;2023-05-14T14:41:05;3.07;;;2.50;;
35540;SDS011;21650;48.840;9.162;2023-05-14T14:43:32;3.87;;;3.47;;